Weather at Antigonish (St. Martha's Regional Hospital) Heliport

Public forecast

Using degrees Celsius for public forecast. Weather courtesy of forecast.io.

Closest aviation weather report (METAR) to Antigonish (St. Martha's Regional Hospital) Heliport

Closest report is Port Hawkesbury Airport, 25.8 nm (47.8 km) E.

2024/05/21 16:00 (retrieved 33 minutes ago)

CYPD 211600Z AUTO 19006KT 160V230 9SM BKN140 21/12 A2991 RMK SLP131 DENSITY ALT 1200FT

Closest aviation forecast (TAF) to Antigonish (St. Martha's Regional Hospital) Heliport

Closest forecast is Charlottetown Airport, 62.0 nm (114.9 km) NW.

2024/05/21 14:21 Ammendment (retrieved 2 hours ago)

TAF AMD CYYG 211420Z 2114/2124 22012G22KT P6SM -SHRA SCT006 OVC025 TEMPO 2114/2115 VRB15G25KT 5SM TSRA BR BKN006 OVC025CB FM211500 21015KT P6SM SCT200 RMK NXT FCST BY 211800Z